createdAt,value
2018-04-30T00:00:08.332Z,15.22
2018-04-30T00:01:08.327Z,15.25
2018-04-30T00:02:08.588Z,15.23
2018-04-30T00:03:08.315Z,15.25
2018-04-30T00:04:08.314Z,15.26
2018-04-30T00:05:08.564Z,15.23
2018-04-30T00:06:08.303Z,15.2
2018-04-30T00:07:08.296Z,15.2
2018-04-30T00:08:08.293Z,15.16
2018-04-30T00:09:08.285Z,15.16
2018-04-30T00:10:08.545Z,15.19
2018-04-30T00:11:08.289Z,15.16
2018-04-30T00:12:08.272Z,15.25
2018-04-30T00:13:08.012Z,15.1
2018-04-30T00:14:08.524Z,15.16
2018-04-30T00:15:08.522Z,15.19
2018-04-30T00:16:08.253Z,15.37
2018-04-30T00:17:08.503Z,15.26
2018-04-30T00:18:08.506Z,15.34
2018-04-30T00:19:08.493Z,15.33
2018-04-30T00:20:08.481Z,15.33
2018-04-30T00:21:08.611Z,15.33
2018-04-30T00:22:08.220Z,15.43
2018-04-30T00:23:08.470Z,15.35
2018-04-30T00:24:07.951Z,15.31
2018-04-30T00:25:08.203Z,15.19
2018-04-30T00:26:08.201Z,15.25
2018-04-30T00:27:08.200Z,15.22
2018-04-30T00:28:08.453Z,15.25
2018-04-30T00:29:08.184Z,15.18
2018-04-30T00:30:08.438Z,15.25
2018-04-30T00:31:07.919Z,15.25
2018-04-30T00:32:08.169Z,15.19
2018-04-30T00:33:08.162Z,15.2
2018-04-30T00:34:08.166Z,15.22
2018-04-30T00:35:08.156Z,15.2
2018-04-30T00:36:07.890Z,15.2
2018-04-30T00:37:08.144Z,15.1
2018-04-30T00:38:08.136Z,15.16
2018-04-30T00:39:08.137Z,15.18
2018-04-30T00:40:08.379Z,15.13
2018-04-30T00:41:08.383Z,15.19
2018-04-30T00:42:08.113Z,15.07
2018-04-30T00:43:08.366Z,15.1
2018-04-30T00:44:08.105Z,15.22
2018-04-30T00:45:08.100Z,15.23
2018-04-30T00:46:07.835Z,15.31
2018-04-30T00:47:08.087Z,15.31
2018-04-30T00:48:08.088Z,15.38
2018-04-30T00:49:07.820Z,15.37
2018-04-30T00:50:08.074Z,15.43
2018-04-30T00:51:08.066Z,15.37
2018-04-30T00:52:07.808Z,15.38
2018-04-30T00:53:08.054Z,15.23
2018-04-30T00:54:08.315Z,15.27
2018-04-30T00:55:08.539Z,15.23
2018-04-30T00:56:08.048Z,15.2
2018-04-30T00:57:08.038Z,15.23
2018-04-30T00:58:07.778Z,15.2
2018-04-30T00:59:08.285Z,15.27
2018-04-30T01:00:08.026Z,15.13
2018-04-30T01:01:08.278Z,15.15
2018-04-30T01:02:08.010Z,15.15
2018-04-30T01:03:08.274Z,15.19
2018-04-30T01:04:08.261Z,15.23
2018-04-30T01:05:07.738Z,15.23
2018-04-30T01:06:07.731Z,15.13
2018-04-30T01:07:07.989Z,15.15
2018-04-30T01:08:07.981Z,15.08
2018-04-30T01:09:07.977Z,15
2018-04-30T01:10:08.230Z,15.16
2018-04-30T01:11:08.218Z,15.12
2018-04-30T01:12:08.231Z,15.16
2018-04-30T01:13:07.957Z,15.05
2018-04-30T01:14:08.209Z,15.05
2018-04-30T01:15:07.947Z,15.1
2018-04-30T01:16:08.197Z,15.04
2018-04-30T01:17:07.935Z,15
2018-04-30T01:18:07.675Z,14.9
2018-04-30T01:19:07.923Z,14.9
2018-04-30T01:20:08.181Z,14.86
2018-04-30T01:21:07.918Z,14.83
2018-04-30T01:22:07.650Z,14.9
2018-04-30T01:23:07.904Z,14.86
2018-04-30T01:24:08.151Z,14.83
2018-04-30T01:25:08.149Z,14.69
2018-04-30T01:26:07.627Z,14.74
2018-04-30T01:27:08.209Z,14.74
2018-04-30T01:28:08.140Z,14.7
2018-04-30T01:29:07.874Z,14.67
2018-04-30T01:30:08.123Z,14.7
2018-04-30T01:31:08.122Z,14.7
2018-04-30T01:32:07.851Z,14.74
2018-04-30T01:33:08.105Z,14.63
2018-04-30T01:34:08.104Z,14.67
2018-04-30T01:35:07.840Z,14.63
2018-04-30T01:36:07.830Z,14.64
2018-04-30T01:37:07.828Z,14.66
2018-04-30T01:38:08.080Z,14.56
2018-04-30T01:39:07.814Z,14.63
2018-04-30T01:40:07.816Z,14.6
2018-04-30T01:41:07.809Z,14.57
2018-04-30T01:42:08.062Z,14.56
2018-04-30T01:43:07.800Z,14.59
2018-04-30T01:44:08.044Z,14.49
2018-04-30T01:45:08.037Z,14.49
2018-04-30T01:46:07.521Z,14.49
2018-04-30T01:47:08.027Z,14.53
2018-04-30T01:48:07.760Z,14.57
2018-04-30T01:49:08.014Z,14.57
2018-04-30T01:50:08.013Z,14.46
2018-04-30T01:51:08.007Z,14.51
2018-04-30T01:52:07.741Z,14.46
2018-04-30T01:53:07.744Z,14.49
2018-04-30T01:54:07.476Z,14.46
2018-04-30T01:55:07.984Z,14.52
2018-04-30T01:56:07.979Z,14.46
2018-04-30T01:57:07.975Z,14.49
2018-04-30T01:58:07.451Z,14.51
2018-04-30T01:59:07.703Z,14.38
2018-04-30T02:00:07.698Z,14.39
2018-04-30T02:01:07.956Z,14.44
2018-04-30T02:02:07.690Z,14.36
2018-04-30T02:03:07.424Z,14.39
2018-04-30T02:04:07.431Z,14.42
2018-04-30T02:05:07.415Z,14.34
2018-04-30T02:06:07.923Z,14.44
2018-04-30T02:07:07.662Z,14.31
2018-04-30T02:08:07.392Z,14.28
2018-04-30T02:09:07.648Z,14.3
2018-04-30T02:10:07.913Z,14.28
2018-04-30T02:11:07.633Z,14.26
2018-04-30T02:12:07.698Z,14.2
2018-04-30T02:13:07.622Z,14.26
2018-04-30T02:14:07.883Z,14.27
2018-04-30T02:15:07.858Z,14.28
2018-04-30T02:16:07.861Z,14.26
2018-04-30T02:17:07.859Z,14.24
2018-04-30T02:18:07.852Z,14.31
2018-04-30T02:19:07.844Z,14.28
2018-04-30T02:20:07.590Z,14.27
2018-04-30T02:21:07.316Z,14.27
2018-04-30T02:22:07.570Z,14.28
2018-04-30T02:23:07.575Z,14.28
2018-04-30T02:24:07.816Z,14.26
2018-04-30T02:25:07.807Z,14.31
2018-04-30T02:26:07.548Z,14.28
2018-04-30T02:27:07.541Z,14.3
2018-04-30T02:28:07.530Z,14.27
2018-04-30T02:29:07.525Z,14.28
2018-04-30T02:30:07.639Z,14.31
2018-04-30T02:31:07.777Z,14.28
2018-04-30T02:32:07.782Z,14.28
2018-04-30T02:33:07.507Z,14.09
2018-04-30T02:34:07.500Z,14.12
2018-04-30T02:35:07.759Z,14.16
2018-04-30T02:36:07.747Z,14.12
2018-04-30T02:37:07.734Z,14.06
2018-04-30T02:38:07.735Z,14.09
2018-04-30T02:39:07.740Z,14.05
2018-04-30T02:40:07.720Z,13.99
2018-04-30T02:41:07.204Z,14.02
2018-04-30T02:42:07.713Z,13.95
2018-04-30T02:43:07.707Z,13.88
2018-04-30T02:44:07.709Z,13.81
2018-04-30T02:45:07.435Z,13.87
2018-04-30T02:46:07.433Z,13.84
2018-04-30T02:47:07.679Z,13.83
2018-04-30T02:48:07.681Z,13.75
2018-04-30T02:49:07.148Z,13.7
2018-04-30T02:50:07.675Z,13.7
2018-04-30T02:51:07.661Z,13.68
2018-04-30T02:52:07.652Z,13.7
2018-04-30T02:53:07.391Z,13.57
2018-04-30T02:54:07.638Z,13.55
2018-04-30T02:55:07.119Z,13.51
2018-04-30T02:56:07.367Z,13.54
2018-04-30T02:57:07.619Z,13.53
2018-04-30T02:58:07.784Z,13.53
2018-04-30T02:59:07.346Z,13.51
2018-04-30T03:00:07.372Z,13.5
2018-04-30T03:01:07.590Z,13.53
2018-04-30T03:02:07.593Z,13.53
2018-04-30T03:03:07.586Z,13.57
2018-04-30T03:04:07.313Z,13.53
2018-04-30T03:05:07.318Z,13.58
2018-04-30T03:06:07.297Z,13.5
2018-04-30T03:07:07.562Z,13.54
2018-04-30T03:08:07.290Z,13.4
2018-04-30T03:09:07.282Z,13.54
2018-04-30T03:10:07.540Z,13.57
2018-04-30T03:11:07.271Z,13.55
2018-04-30T03:12:07.270Z,13.48
2018-04-30T03:13:07.518Z,13.53
2018-04-30T03:14:06.997Z,13.53
2018-04-30T03:15:07.570Z,13.53
2018-04-30T03:16:07.492Z,13.51
2018-04-30T03:17:07.233Z,13.45
2018-04-30T03:18:07.496Z,13.47
2018-04-30T03:19:07.568Z,13.45
2018-04-30T03:20:07.494Z,13.37
2018-04-30T03:21:07.464Z,13.39
2018-04-30T03:22:07.195Z,13.35
2018-04-30T03:23:07.456Z,13.4
2018-04-30T03:24:07.442Z,13.4
2018-04-30T03:25:07.189Z,13.48
2018-04-30T03:26:06.916Z,13.42
2018-04-30T03:27:07.169Z,13.48
2018-04-30T03:28:07.159Z,13.4
2018-04-30T03:29:07.155Z,13.44
2018-04-30T03:30:07.426Z,13.4
2018-04-30T03:31:07.407Z,13.4
2018-04-30T03:32:07.134Z,13.4
2018-04-30T03:33:07.123Z,13.29
2018-04-30T03:34:07.374Z,13.27
2018-04-30T03:35:07.110Z,13.31
2018-04-30T03:36:07.109Z,13.32
2018-04-30T03:37:07.356Z,13.31
2018-04-30T03:38:07.355Z,13.32
2018-04-30T03:39:07.350Z,13.36
2018-04-30T03:40:07.091Z,13.25
2018-04-30T03:41:07.079Z,13.29
2018-04-30T03:42:07.325Z,13.32
2018-04-30T03:43:07.321Z,13.31
2018-04-30T03:44:07.314Z,13.24
2018-04-30T03:45:07.051Z,13.31
2018-04-30T03:46:07.048Z,13.19
2018-04-30T03:47:07.041Z,13.28
2018-04-30T03:48:07.286Z,13.27
2018-04-30T03:49:07.028Z,13.24
2018-04-30T03:50:07.282Z,13.16
2018-04-30T03:51:07.006Z,13.27
2018-04-30T03:52:07.258Z,13.17
2018-04-30T03:53:06.992Z,13.13
2018-04-30T03:54:06.988Z,13.14
2018-04-30T03:55:06.986Z,13.19
2018-04-30T03:56:06.969Z,13.13
2018-04-30T03:57:06.965Z,13.13
2018-04-30T03:58:07.221Z,13.2
2018-04-30T03:59:06.949Z,13.2
2018-04-30T04:00:07.204Z,13.32
2018-04-30T04:01:06.942Z,13.29
2018-04-30T04:02:06.943Z,13.39
2018-04-30T04:03:07.011Z,13.42
2018-04-30T04:04:06.922Z,13.35
2018-04-30T04:05:07.170Z,13.4
2018-04-30T04:06:06.911Z,13.51
2018-04-30T04:07:06.900Z,13.37
2018-04-30T04:08:07.159Z,13.47
2018-04-30T04:09:07.148Z,13.48
2018-04-30T04:10:07.133Z,13.5
2018-04-30T04:11:07.128Z,13.5
2018-04-30T04:12:06.868Z,13.57
2018-04-30T04:13:06.859Z,13.48
2018-04-30T04:14:07.111Z,13.53
2018-04-30T04:15:07.111Z,13.55
2018-04-30T04:16:07.099Z,13.57
2018-04-30T04:17:07.092Z,13.6
2018-04-30T04:18:06.831Z,13.6
2018-04-30T04:19:07.083Z,13.63
2018-04-30T04:20:06.813Z,13.75
2018-04-30T04:21:07.070Z,13.69
2018-04-30T04:22:07.076Z,13.75
2018-04-30T04:23:06.795Z,13.86
2018-04-30T04:24:06.796Z,13.83
2018-04-30T04:25:07.038Z,13.93
2018-04-30T04:26:06.516Z,13.91
2018-04-30T04:27:06.774Z,13.94
2018-04-30T04:28:07.018Z,13.94
2018-04-30T04:29:07.009Z,13.95
2018-04-30T04:30:07.004Z,14.02
2018-04-30T04:31:06.484Z,13.99
2018-04-30T04:32:06.995Z,13.94
2018-04-30T04:33:06.984Z,13.97
2018-04-30T04:34:06.730Z,14.05
2018-04-30T04:35:06.976Z,14.08
2018-04-30T04:36:06.708Z,14.11
2018-04-30T04:37:06.444Z,14.12
2018-04-30T04:38:06.694Z,14.09
2018-04-30T04:39:06.949Z,14.06
2018-04-30T04:40:06.683Z,14.12
2018-04-30T04:41:06.672Z,14.08
2018-04-30T04:42:06.926Z,14.09
2018-04-30T04:43:06.923Z,14.24
2018-04-30T04:44:06.654Z,14.3
2018-04-30T04:45:06.649Z,14.21
2018-04-30T04:46:06.384Z,14.33
2018-04-30T04:47:06.893Z,14.26
2018-04-30T04:48:06.645Z,14.27
2018-04-30T04:49:06.882Z,14.3
2018-04-30T04:50:06.616Z,14.28
2018-04-30T04:51:06.931Z,14.33
2018-04-30T04:52:06.866Z,14.3
2018-04-30T04:53:06.601Z,14.49
2018-04-30T04:54:06.335Z,14.53
2018-04-30T04:55:06.861Z,14.53
2018-04-30T04:56:06.581Z,14.74
2018-04-30T04:57:06.583Z,14.59
2018-04-30T04:58:06.568Z,14.87
2018-04-30T04:59:06.304Z,14.93
2018-04-30T05:00:06.827Z,15.01
2018-04-30T05:01:06.292Z,15.1
2018-04-30T05:02:06.289Z,15.18
2018-04-30T05:03:06.800Z,15.27
2018-04-30T05:04:06.533Z,15.41
2018-04-30T05:05:06.523Z,15.52
2018-04-30T05:06:06.770Z,15.56
2018-04-30T05:07:06.783Z,15.77
2018-04-30T05:08:06.775Z,15.71
2018-04-30T05:09:06.503Z,15.8
2018-04-30T05:10:06.760Z,15.83
2018-04-30T05:11:06.754Z,15.92
2018-04-30T05:12:06.483Z,15.93
2018-04-30T05:13:06.221Z,15.92
2018-04-30T05:14:06.484Z,15.77
2018-04-30T05:15:06.471Z,15.78
2018-04-30T05:16:06.466Z,15.78
2018-04-30T05:17:06.468Z,15.71
2018-04-30T05:18:06.461Z,15.6
2018-04-30T05:19:06.445Z,15.6
2018-04-30T05:20:06.457Z,15.62
2018-04-30T05:21:06.533Z,15.59
2018-04-30T05:22:06.695Z,15.55
2018-04-30T05:23:06.428Z,15.52
2018-04-30T05:24:06.676Z,15.47
2018-04-30T05:25:06.687Z,15.49
2018-04-30T05:26:06.412Z,15.45
2018-04-30T05:27:06.665Z,15.45
2018-04-30T05:28:06.663Z,15.43
2018-04-30T05:29:06.653Z,15.43
2018-04-30T05:30:06.390Z,15.41
2018-04-30T05:31:06.386Z,15.41
2018-04-30T05:32:06.384Z,15.45
2018-04-30T05:33:06.641Z,15.4
2018-04-30T05:34:06.112Z,15.44
2018-04-30T05:35:06.366Z,15.45
2018-04-30T05:36:06.625Z,15.47
2018-04-30T05:37:06.618Z,15.47
2018-04-30T05:38:06.098Z,15.51
2018-04-30T05:39:06.691Z,15.49
2018-04-30T05:40:06.601Z,15.49
2018-04-30T05:41:06.339Z,15.62
2018-04-30T05:42:06.590Z,15.59
2018-04-30T05:43:06.327Z,15.58
2018-04-30T05:44:06.582Z,15.58
2018-04-30T05:45:06.577Z,15.56
2018-04-30T05:46:06.311Z,15.53
2018-04-30T05:47:06.312Z,15.56
2018-04-30T05:48:06.419Z,15.53
2018-04-30T05:49:06.302Z,15.52
2018-04-30T05:50:06.040Z,15.6
2018-04-30T05:51:06.309Z,15.56
2018-04-30T05:52:06.286Z,15.59
2018-04-30T05:53:06.621Z,15.52
2018-04-30T05:54:06.541Z,15.62
2018-04-30T05:55:06.277Z,15.74
2018-04-30T05:56:06.264Z,15.74
2018-04-30T05:57:06.262Z,15.73
2018-04-30T05:58:06.000Z,15.86
2018-04-30T05:59:06.505Z,15.88
2018-04-30T06:00:06.242Z,15.93
2018-04-30T06:01:06.236Z,16.04
2018-04-30T06:02:06.526Z,15.95
2018-04-30T06:03:06.228Z,16.02
2018-04-30T06:04:06.487Z,16.13
2018-04-30T06:05:06.247Z,16.13
2018-04-30T06:06:06.471Z,16.11
2018-04-30T06:07:06.472Z,16.06
2018-04-30T06:08:06.465Z,16
2018-04-30T06:09:06.201Z,16
2018-04-30T06:10:06.206Z,16.02
2018-04-30T06:11:06.448Z,16.06
2018-04-30T06:12:06.311Z,16.13
2018-04-30T06:13:06.189Z,16.11
2018-04-30T06:14:06.176Z,16.13
2018-04-30T06:15:06.432Z,16.08
2018-04-30T06:16:05.913Z,16.13
2018-04-30T06:17:06.423Z,16.18
2018-04-30T06:18:06.421Z,16.26
2018-04-30T06:19:06.423Z,16.26
2018-04-30T06:20:06.411Z,16.27
2018-04-30T06:21:06.146Z,16.44
2018-04-30T06:22:06.406Z,16.48
2018-04-30T06:23:06.154Z,16.42
2018-04-30T06:24:06.391Z,16.55
2018-04-30T06:25:06.171Z,16.47
2018-04-30T06:26:05.867Z,16.47
2018-04-30T06:27:05.863Z,16.51
2018-04-30T06:28:06.120Z,16.4
2018-04-30T06:29:06.108Z,16.25
2018-04-30T06:30:06.102Z,16.27
2018-04-30T06:31:05.843Z,16.25
2018-04-30T06:32:06.099Z,16.25
2018-04-30T06:33:06.096Z,16.21
2018-04-30T06:34:06.091Z,16.11
2018-04-30T06:35:05.832Z,16.07
2018-04-30T06:36:06.340Z,16.07
2018-04-30T06:37:06.085Z,15.92
2018-04-30T06:38:06.330Z,15.86
2018-04-30T06:39:06.329Z,15.7
2018-04-30T06:40:06.070Z,15.63
2018-04-30T06:41:06.055Z,15.47
2018-04-30T06:42:06.053Z,15.41
2018-04-30T06:43:06.313Z,15.43
2018-04-30T06:44:05.792Z,15.52
2018-04-30T06:45:06.037Z,15.71
2018-04-30T06:46:06.052Z,16.27
2018-04-30T06:47:06.030Z,16.95
2018-04-30T06:48:06.281Z,17.36
2018-04-30T06:49:06.277Z,17.77
2018-04-30T06:50:06.270Z,18.02
2018-04-30T06:51:06.015Z,18.38
2018-04-30T06:52:06.274Z,18.96
2018-04-30T06:53:06.011Z,19.43
2018-04-30T06:54:06.265Z,20.15
2018-04-30T06:55:05.999Z,20.54
2018-04-30T06:56:06.255Z,20.81
2018-04-30T06:57:05.739Z,21.19
2018-04-30T06:58:05.992Z,21.68
2018-04-30T06:59:05.994Z,22.04
2018-04-30T07:00:06.254Z,22.38
2018-04-30T07:01:05.993Z,22.71
2018-04-30T07:02:05.986Z,23.12
2018-04-30T07:03:05.987Z,23.29
2018-04-30T07:04:06.246Z,23.52
2018-04-30T07:05:06.252Z,23.77
2018-04-30T07:06:05.986Z,23.19
2018-04-30T07:07:06.236Z,22.61
2018-04-30T07:08:06.232Z,22.04
2018-04-30T07:09:06.370Z,21.43
2018-04-30T07:10:05.977Z,20.96
2018-04-30T07:11:06.239Z,20.23
2018-04-30T07:12:05.980Z,19.74
2018-04-30T07:13:06.237Z,19.2
2018-04-30T07:14:05.979Z,18.71
2018-04-30T07:15:06.235Z,18.26
2018-04-30T07:16:05.977Z,18.01
2018-04-30T07:17:06.249Z,17.69
2018-04-30T07:18:05.978Z,17.4
2018-04-30T07:19:06.239Z,17.06
2018-04-30T07:20:06.435Z,16.87
2018-04-30T07:21:06.224Z,16.7
2018-04-30T07:22:05.975Z,16.62
2018-04-30T07:23:06.035Z,16.42
2018-04-30T07:24:05.964Z,16.33
2018-04-30T07:25:05.961Z,16.22
2018-04-30T07:26:05.967Z,16.11
2018-04-30T07:27:05.953Z,16.07
2018-04-30T07:28:06.211Z,15.84
2018-04-30T07:29:06.207Z,15.81
2018-04-30T07:30:05.944Z,15.7
2018-04-30T07:31:05.948Z,15.67
2018-04-30T07:32:05.938Z,15.68
2018-04-30T07:33:06.012Z,15.63
2018-04-30T07:34:06.197Z,15.56
2018-04-30T07:35:05.928Z,15.44
2018-04-30T07:36:05.930Z,15.31
2018-04-30T07:37:06.178Z,15.43
2018-04-30T07:38:05.918Z,15.45
2018-04-30T07:39:06.100Z,15.56
2018-04-30T07:40:05.910Z,15.7
2018-04-30T07:41:06.170Z,15.81
2018-04-30T07:42:06.158Z,15.81
2018-04-30T07:43:06.156Z,15.92
2018-04-30T07:44:06.154Z,15.99
2018-04-30T07:45:05.629Z,15.95
2018-04-30T07:46:06.145Z,15.93
2018-04-30T07:47:06.140Z,15.88
2018-04-30T07:48:05.623Z,15.86
2018-04-30T07:49:06.213Z,15.84
2018-04-30T07:50:05.879Z,15.75
2018-04-30T07:51:06.134Z,15.65
2018-04-30T07:52:06.119Z,15.56
2018-04-30T07:53:06.116Z,15.38
2018-04-30T07:54:06.108Z,15.25
2018-04-30T07:55:06.115Z,15.19
2018-04-30T07:56:05.848Z,15.25
2018-04-30T07:57:06.100Z,15.23
2018-04-30T07:58:06.094Z,15.19
2018-04-30T07:59:06.090Z,15.19
2018-04-30T08:00:06.089Z,15.27
2018-04-30T08:01:06.079Z,15.41
2018-04-30T08:02:05.561Z,15.4
2018-04-30T08:03:05.595Z,15.58
2018-04-30T08:04:05.813Z,15.75
2018-04-30T08:05:05.547Z,16.06
2018-04-30T08:06:06.059Z,16.17
2018-04-30T08:07:05.549Z,16.14
2018-04-30T08:08:06.051Z,16.29
2018-04-30T08:09:05.849Z,16.3
2018-04-30T08:10:06.045Z,16.29
2018-04-30T08:11:06.049Z,16.47
2018-04-30T08:12:06.035Z,16.63
2018-04-30T08:13:06.034Z,16.8
2018-04-30T08:14:05.508Z,16.73
2018-04-30T08:15:06.025Z,16.99
2018-04-30T08:16:05.758Z,17.06
2018-04-30T08:17:05.761Z,17.15
2018-04-30T08:18:05.750Z,17.42
2018-04-30T08:19:06.009Z,17.73
2018-04-30T08:20:05.743Z,17.9
2018-04-30T08:21:06.001Z,17.88
2018-04-30T08:22:05.992Z,17.69
2018-04-30T08:23:06.001Z,17.6
2018-04-30T08:24:05.470Z,17.8
2018-04-30T08:25:05.737Z,18.01
2018-04-30T08:26:05.979Z,18.23
2018-04-30T08:27:05.723Z,18.38
2018-04-30T08:28:05.724Z,18.41
2018-04-30T08:29:05.713Z,18.59
2018-04-30T08:30:05.968Z,18.61
2018-04-30T08:31:05.455Z,18.53
2018-04-30T08:32:05.966Z,18.44
2018-04-30T08:33:05.960Z,18.29
2018-04-30T08:34:05.696Z,18.23
2018-04-30T08:35:05.955Z,18.14
2018-04-30T08:36:05.433Z,18.02
2018-04-30T08:37:05.950Z,17.95
2018-04-30T08:38:05.948Z,17.79
2018-04-30T08:39:05.947Z,17.83
2018-04-30T08:40:05.953Z,17.81
2018-04-30T08:41:05.422Z,17.62
2018-04-30T08:42:05.677Z,17.58
2018-04-30T08:43:05.670Z,17.49
2018-04-30T08:44:05.931Z,17.52
2018-04-30T08:45:06.027Z,17.69
2018-04-30T08:46:05.924Z,17.98
2018-04-30T08:47:05.929Z,18.03
2018-04-30T08:48:05.667Z,18.17
2018-04-30T08:49:05.677Z,17.9
2018-04-30T08:50:05.654Z,17.68
2018-04-30T08:51:05.907Z,17.58
2018-04-30T08:52:05.483Z,17.5
2018-04-30T08:53:05.909Z,17.62
2018-04-30T08:54:05.648Z,17.55
2018-04-30T08:55:05.899Z,17.47
2018-04-30T08:56:05.904Z,17.52
2018-04-30T08:57:05.894Z,17.62
2018-04-30T08:58:05.633Z,17.77
2018-04-30T08:59:05.901Z,17.94
2018-04-30T09:00:05.637Z,18.05
2018-04-30T09:01:05.629Z,18.27
2018-04-30T09:02:05.362Z,18.45
2018-04-30T09:03:05.878Z,18.6
2018-04-30T09:04:05.883Z,18.81
2018-04-30T09:05:05.619Z,18.79
2018-04-30T09:06:05.616Z,18.91
2018-04-30T09:07:05.870Z,18.99
2018-04-30T09:08:05.866Z,19
2018-04-30T09:09:05.650Z,18.74
2018-04-30T09:10:05.858Z,18.68
2018-04-30T09:11:05.852Z,18.6
2018-04-30T09:12:05.597Z,18.5
2018-04-30T09:13:05.846Z,18.31
2018-04-30T09:14:05.595Z,18.19
2018-04-30T09:15:06.063Z,18.17
2018-04-30T09:16:05.846Z,18.19
2018-04-30T09:17:05.844Z,18.26
2018-04-30T09:18:05.857Z,18.06
2018-04-30T09:19:05.587Z,18.21
2018-04-30T09:20:05.580Z,18.1
2018-04-30T09:21:05.576Z,17.81
2018-04-30T09:22:05.896Z,17.8
2018-04-30T09:23:05.821Z,17.74
2018-04-30T09:24:05.829Z,17.66
2018-04-30T09:25:05.825Z,17.55
2018-04-30T09:26:05.820Z,17.65
2018-04-30T09:27:05.820Z,17.77
2018-04-30T09:28:05.925Z,18.01
2018-04-30T09:29:05.719Z,18.03
2018-04-30T09:30:05.889Z,18.17
2018-04-30T09:31:05.547Z,18.21
2018-04-30T09:32:05.549Z,18.11
2018-04-30T09:33:05.284Z,17.94
2018-04-30T09:34:05.798Z,17.95
2018-04-30T09:35:05.642Z,17.84
2018-04-30T09:36:05.802Z,17.69
2018-04-30T09:37:05.785Z,17.57
2018-04-30T09:38:05.786Z,17.32
2018-04-30T09:39:05.794Z,17.25
2018-04-30T09:40:05.783Z,17.09
2018-04-30T09:41:05.774Z,17.1
2018-04-30T09:42:05.780Z,17.07
2018-04-30T09:43:05.511Z,17.05
2018-04-30T09:44:05.775Z,17.05
2018-04-30T09:45:05.511Z,17.12
2018-04-30T09:46:05.248Z,17.13
2018-04-30T09:47:05.501Z,17.1
2018-04-30T09:48:05.500Z,17.2
2018-04-30T09:49:05.763Z,17.3
2018-04-30T09:50:05.493Z,17.46
2018-04-30T09:51:05.491Z,17.55
2018-04-30T09:52:05.234Z,17.65
2018-04-30T09:53:05.489Z,17.63
2018-04-30T09:54:05.489Z,17.73
2018-04-30T09:55:05.739Z,17.9
2018-04-30T09:56:05.742Z,18.03
2018-04-30T09:57:05.472Z,18.11
2018-04-30T09:58:05.468Z,18.14
2018-04-30T09:59:05.468Z,18.34
2018-04-30T10:00:05.726Z,18.39
2018-04-30T10:01:05.460Z,18.56
2018-04-30T10:02:05.716Z,18.66
2018-04-30T10:03:05.462Z,18.84
2018-04-30T10:04:05.717Z,19.02
2018-04-30T10:05:05.195Z,19.07
2018-04-30T10:06:05.714Z,19.06
2018-04-30T10:07:05.450Z,18.96
2018-04-30T10:08:05.445Z,18.99
2018-04-30T10:09:05.705Z,18.9
2018-04-30T10:10:05.703Z,19.02
2018-04-30T10:11:05.694Z,19.06
2018-04-30T10:12:05.705Z,19.13
2018-04-30T10:13:05.697Z,18.99
2018-04-30T10:14:05.431Z,18.81
2018-04-30T10:15:05.690Z,18.74
2018-04-30T10:16:05.425Z,18.78
2018-04-30T10:17:05.679Z,18.86
2018-04-30T10:18:05.425Z,19.05
2018-04-30T10:19:05.420Z,19.05
2018-04-30T10:20:05.424Z,18.91
2018-04-30T10:21:05.413Z,18.74
2018-04-30T10:22:05.410Z,18.69
2018-04-30T10:23:05.409Z,18.75
2018-04-30T10:24:05.406Z,18.75
2018-04-30T10:25:05.671Z,18.71
2018-04-30T10:26:05.410Z,18.66
2018-04-30T10:27:05.397Z,18.63
2018-04-30T10:28:05.662Z,18.54
2018-04-30T10:29:05.825Z,18.53
2018-04-30T10:30:05.653Z,18.47
2018-04-30T10:31:05.656Z,18.44
2018-04-30T10:32:05.644Z,18.39
2018-04-30T10:33:05.402Z,18.32
2018-04-30T10:34:05.637Z,18.32
2018-04-30T10:35:05.637Z,18.23
2018-04-30T10:36:05.377Z,18.2
2018-04-30T10:37:05.379Z,17.99
2018-04-30T10:38:05.797Z,17.99
2018-04-30T10:39:05.635Z,17.8
2018-04-30T10:40:05.629Z,17.62
2018-04-30T10:41:05.368Z,17.66
2018-04-30T10:42:05.621Z,17.69
2018-04-30T10:43:05.624Z,17.65
2018-04-30T10:44:05.106Z,17.8
2018-04-30T10:45:05.615Z,17.98
2018-04-30T10:46:05.776Z,18.1
2018-04-30T10:47:05.622Z,18.17
2018-04-30T10:48:05.618Z,18.11
2018-04-30T10:49:05.351Z,18.02
2018-04-30T10:50:05.351Z,17.79
2018-04-30T10:51:05.345Z,17.68
2018-04-30T10:52:05.340Z,17.5
2018-04-30T10:53:05.346Z,17.5
2018-04-30T10:54:05.593Z,17.49
2018-04-30T10:55:05.342Z,17.52
2018-04-30T10:56:05.076Z,17.47
2018-04-30T10:57:05.334Z,17.47
2018-04-30T10:58:05.346Z,17.55
2018-04-30T10:59:05.321Z,17.49
2018-04-30T11:00:05.327Z,17.6
2018-04-30T11:01:05.582Z,17.74
2018-04-30T11:02:05.316Z,17.87
2018-04-30T11:03:05.311Z,18.01
2018-04-30T11:04:05.575Z,18.19
2018-04-30T11:05:05.318Z,18.16
2018-04-30T11:06:05.559Z,18.03
2018-04-30T11:07:05.555Z,17.92
2018-04-30T11:08:05.303Z,17.86
2018-04-30T11:09:05.550Z,17.77
2018-04-30T11:10:05.035Z,17.6
2018-04-30T11:11:05.290Z,17.25
2018-04-30T11:12:05.290Z,17.03
2018-04-30T11:13:05.543Z,16.72
2018-04-30T11:14:05.274Z,16.66
2018-04-30T11:15:05.279Z,16.51
2018-04-30T11:16:05.526Z,16.44
2018-04-30T11:17:05.530Z,16.33
2018-04-30T11:18:05.524Z,16.33
2018-04-30T11:19:05.265Z,16.22
2018-04-30T11:20:05.518Z,16.34
2018-04-30T11:21:05.258Z,16.62
2018-04-30T11:22:04.992Z,16.94
2018-04-30T11:23:05.504Z,17.17
2018-04-30T11:24:05.501Z,17.54
2018-04-30T11:25:05.503Z,17.84
2018-04-30T11:26:05.494Z,17.99
2018-04-30T11:27:05.496Z,18.05
2018-04-30T11:28:05.231Z,18.13
2018-04-30T11:29:05.231Z,18.19
2018-04-30T11:30:05.236Z,18.23
2018-04-30T11:31:05.475Z,18.31
2018-04-30T11:32:05.215Z,18.39
2018-04-30T11:33:05.993Z,18.41
2018-04-30T11:34:05.041Z,18.44
2018-04-30T11:35:05.484Z,18.45
2018-04-30T11:36:05.216Z,18.24
2018-04-30T11:37:05.227Z,18.29
2018-04-30T11:38:05.214Z,18.2
2018-04-30T11:39:05.201Z,18.17
2018-04-30T11:40:05.650Z,18.17
2018-04-30T11:41:05.454Z,18.06
2018-04-30T11:42:05.849Z,17.98
2018-04-30T11:43:05.475Z,17.88
2018-04-30T11:44:05.447Z,17.8
2018-04-30T11:45:05.178Z,17.65
2018-04-30T11:46:05.441Z,17.62
2018-04-30T11:47:05.292Z,17.46
2018-04-30T11:48:05.435Z,17.43
2018-04-30T11:49:05.232Z,17.28
2018-04-30T11:50:05.164Z,17.17
2018-04-30T11:51:04.896Z,17.1
2018-04-30T11:52:05.835Z,17.1
2018-04-30T11:53:05.425Z,17.13
2018-04-30T11:54:04.883Z,16.95
2018-04-30T11:55:04.879Z,17.15
2018-04-30T11:56:05.150Z,17.05
2018-04-30T11:57:05.415Z,17.05
2018-04-30T11:58:04.868Z,17.13
2018-04-30T11:59:05.151Z,17.28
2018-04-30T12:00:05.576Z,17.28
2018-04-30T12:01:05.970Z,17.47
2018-04-30T12:02:05.401Z,17.57
2018-04-30T12:03:04.849Z,17.5
2018-04-30T12:04:04.849Z,17.6
2018-04-30T12:05:05.551Z,17.65
2018-04-30T12:06:05.383Z,17.8
2018-04-30T12:07:05.108Z,17.77
2018-04-30T12:08:05.364Z,17.83
2018-04-30T12:09:05.372Z,17.77
2018-04-30T12:10:05.767Z,17.63
2018-04-30T12:11:05.718Z,17.5
2018-04-30T12:12:05.341Z,17.5
2018-04-30T12:13:05.085Z,17.35
2018-04-30T12:14:05.352Z,17.3
2018-04-30T12:15:05.097Z,17.25
2018-04-30T12:16:05.070Z,17.32
2018-04-30T12:17:05.335Z,17.27
2018-04-30T12:18:05.072Z,17.25
2018-04-30T12:19:05.692Z,17.12
2018-04-30T12:20:05.059Z,17.07
2018-04-30T12:21:05.323Z,17.07
2018-04-30T12:22:05.433Z,16.99
2018-04-30T12:23:05.054Z,16.9
2018-04-30T12:24:05.041Z,16.82
2018-04-30T12:25:05.044Z,16.81
2018-04-30T12:26:05.303Z,16.82
2018-04-30T12:27:05.297Z,16.81
2018-04-30T12:28:05.555Z,16.77
2018-04-30T12:29:05.022Z,16.82
2018-04-30T12:30:05.284Z,16.76
2018-04-30T12:31:05.273Z,16.88
2018-04-30T12:32:05.014Z,16.91
2018-04-30T12:33:05.007Z,17.05
2018-04-30T12:34:05.256Z,17
2018-04-30T12:35:05.294Z,17.05
2018-04-30T12:36:05.122Z,17.09
2018-04-30T12:37:05.396Z,17.18
2018-04-30T12:38:04.974Z,17.15
2018-04-30T12:39:04.987Z,17.17
2018-04-30T12:40:05.244Z,17.09
2018-04-30T12:41:04.983Z,16.99
2018-04-30T12:42:05.229Z,17.03
2018-04-30T12:43:04.963Z,17.1
2018-04-30T12:44:04.690Z,17.18
2018-04-30T12:45:05.226Z,17.12
2018-04-30T12:46:05.393Z,17.13
2018-04-30T12:47:04.942Z,17.15
2018-04-30T12:48:05.211Z,17.2
2018-04-30T12:49:05.201Z,17.25
2018-04-30T12:50:04.665Z,17.32
2018-04-30T12:51:05.190Z,17.32
2018-04-30T12:52:04.661Z,17.45
2018-04-30T12:53:05.194Z,17.36
2018-04-30T12:54:05.192Z,17.39
2018-04-30T12:55:04.648Z,17.49
2018-04-30T12:56:05.482Z,17.52